KMAE

Madera Municipal Airport

Madera, California, USA
METAR KMAE 191553Z AUTO 00000KT 3SM HZ CLR 06/M01 A3009 RMK AO2 SLP188 T00611006
Observed Flight Rules
Nov-19 @ 15:53 UTC (32 minutes ago) Marginal Visual Flight Rules
Visibility Clouds Conditions
3 miles
  • Clear skies
  • Haze
Temperatures Readings
Current 6°C / 43°F
Dewpoint -1°C / 30°F
Humidity 61%
Altimeter 30.09" Hg
Pressure 1018.8 hPa
Elevation 77
METAR KMAE 191553Z AUTO 00000KT 3SM HZ CLR 06/M01 A3009 RMK AO2 SLP188 T00611006
Observed Flight Rules
Nov-19 @ 15:53 UTC
(32 minutes ago)
MVFR
Clouds
  • Clear skies
Conditions
  • Haze
Temperature Dewpoint
6°C / 43°F -1°C / 30°F
Humidity Altimeter Pressure
61% 30.09" Hg 1018.8 hPa